createdAt,value
2019-02-19T00:01:41.776Z,97441.04
2019-02-19T00:04:15.235Z,97439.90
2019-02-19T00:06:48.899Z,97433.20
2019-02-19T00:09:19.460Z,97426.96
2019-02-19T00:11:49.996Z,97426.59
2019-02-19T00:14:23.418Z,97427.53
2019-02-19T00:16:55.205Z,97428.00
2019-02-19T00:19:25.738Z,97421.80
2019-02-19T00:21:56.420Z,97419.95
2019-02-19T00:24:26.945Z,97423.70
2019-02-19T00:26:57.408Z,97420.62
2019-02-19T00:29:27.873Z,97416.13
2019-02-19T00:31:58.379Z,97410.30
2019-02-19T00:34:28.876Z,97406.75
2019-02-19T00:36:59.420Z,97408.66
2019-02-19T00:39:29.910Z,97403.30
2019-02-19T00:42:00.496Z,97404.73
2019-02-19T00:44:30.887Z,97403.40
2019-02-19T00:47:01.554Z,97405.11
2019-02-19T00:49:32.038Z,97398.88
2019-02-19T00:52:02.643Z,97397.84
2019-02-19T00:54:33.320Z,97397.63
2019-02-19T00:57:03.516Z,97392.27
2019-02-19T00:59:34.196Z,97385.10
2019-02-19T01:02:04.685Z,97391.23
2019-02-19T01:04:36.160Z,97380.68
2019-02-19T01:07:07.259Z,97382.52
2019-02-19T01:09:37.823Z,97378.97
2019-02-19T01:12:08.461Z,97379.44
2019-02-19T01:14:39.159Z,97376.76
2019-02-19T01:17:09.836Z,97370.16
2019-02-19T01:19:40.350Z,97372.27
2019-02-19T01:22:10.903Z,97364.70
2019-02-19T01:24:41.539Z,97370.52
2019-02-19T01:27:12.103Z,97371.97
2019-02-19T01:29:43.013Z,97364.80
2019-02-19T01:32:13.787Z,97354.17
2019-02-19T01:34:44.559Z,97359.03
2019-02-19T01:37:15.217Z,97349.66
2019-02-19T01:39:45.772Z,97351.50
2019-02-19T01:42:16.654Z,97354.64
2019-02-19T01:44:47.248Z,97345.62
2019-02-19T01:47:17.732Z,97345.36
2019-02-19T01:49:48.254Z,97340.84
2019-02-19T01:52:19.119Z,97339.90
2019-02-19T01:54:49.789Z,97340.00
2019-02-19T01:57:20.439Z,97338.66
2019-02-19T01:59:51.027Z,97335.11
2019-02-19T02:02:21.510Z,97331.09
2019-02-19T02:04:51.980Z,97328.88
2019-02-19T02:07:22.627Z,97324.09
2019-02-19T02:09:53.367Z,97321.81
2019-02-19T02:12:24.199Z,97324.76
2019-02-19T02:14:55.193Z,97316.82
2019-02-19T02:17:25.686Z,97318.63
2019-02-19T02:19:56.230Z,97319.13
2019-02-19T02:22:26.916Z,97313.00
2019-02-19T02:24:57.638Z,97308.88
2019-02-19T02:27:28.155Z,97302.65
2019-02-19T02:29:58.640Z,97305.33
2019-02-19T02:32:29.157Z,97308.01
2019-02-19T02:34:59.712Z,97301.31
2019-02-19T02:37:30.292Z,97306.67
2019-02-19T02:40:00.741Z,97301.52
2019-02-19T02:42:33.143Z,97308.48
2019-02-19T02:45:03.606Z,97304.96
2019-02-19T02:47:34.240Z,97303.63
2019-02-19T02:50:04.814Z,97300.06
2019-02-19T02:52:35.496Z,97297.49
2019-02-19T02:55:05.950Z,97300.17
2019-02-19T02:57:36.476Z,97300.94
2019-02-19T03:00:08.288Z,97296.98
2019-02-19T03:02:40.086Z,97297.09
2019-02-19T03:05:10.485Z,97299.88
2019-02-19T03:07:44.140Z,97305.13
2019-02-19T03:10:14.729Z,97304.26
2019-02-19T03:12:45.608Z,97309.62
2019-02-19T03:15:16.879Z,97305.23
2019-02-19T03:17:47.325Z,97304.77
2019-02-19T03:20:17.784Z,97309.25
2019-02-19T03:22:48.207Z,97311.93
2019-02-19T03:25:18.700Z,97307.04
2019-02-19T03:27:49.081Z,97304.66
2019-02-19T03:30:19.482Z,97310.39
2019-02-19T03:32:49.915Z,97307.91
2019-02-19T03:35:20.612Z,97304.77
2019-02-19T03:37:50.957Z,97302.92
2019-02-19T03:40:21.324Z,97311.83
2019-02-19T03:42:51.665Z,97314.05
2019-02-19T03:45:22.128Z,97313.17
2019-02-19T03:47:52.453Z,97309.15
2019-02-19T03:50:22.831Z,97312.80
2019-02-19T03:52:55.546Z,97310.95
2019-02-19T03:55:25.739Z,97308.78
2019-02-19T03:57:56.114Z,97314.51
2019-02-19T04:02:57.117Z,97313.64
2019-02-19T04:05:27.429Z,97316.42
2019-02-19T04:07:57.782Z,97313.38
2019-02-19T04:10:30.545Z,97310.69
2019-02-19T04:13:00.971Z,97313.27
2019-02-19T04:15:31.437Z,97316.52
2019-02-19T04:18:01.772Z,97321.78
2019-02-19T04:20:32.110Z,97322.18
2019-02-19T04:23:05.324Z,97328.48
2019-02-19T04:25:35.796Z,97324.86
2019-02-19T04:28:07.650Z,97319.97
2019-02-19T04:30:37.971Z,97317.45
2019-02-19T04:33:08.333Z,97319.77
2019-02-19T04:35:38.625Z,97317.56
2019-02-19T04:38:09.014Z,97320.14
2019-02-19T04:40:39.359Z,97317.45
2019-02-19T04:43:09.742Z,97317.96
2019-02-19T04:45:40.098Z,97312.60
2019-02-19T04:48:10.432Z,97316.12
2019-02-19T04:50:40.813Z,97315.28
2019-02-19T04:53:11.981Z,97322.75
2019-02-19T04:55:42.338Z,97321.48
2019-02-19T05:00:41.762Z,97328.11
2019-02-19T05:03:15.269Z,97326.84
2019-02-19T05:05:45.776Z,97315.75
2019-02-19T05:08:16.094Z,97322.34
2019-02-19T05:10:46.517Z,97325.50
2019-02-19T05:13:16.800Z,97324.66
2019-02-19T05:15:47.476Z,97324.56
2019-02-19T05:18:17.856Z,97324.95
2019-02-19T05:20:48.262Z,97336.05
2019-02-19T05:23:18.502Z,97332.43
2019-02-19T05:25:50.184Z,97334.23
2019-02-19T05:28:20.593Z,97335.58
2019-02-19T05:30:51.027Z,97340.64
2019-02-19T05:33:21.343Z,97333.87
2019-02-19T05:35:51.698Z,97341.34
2019-02-19T05:38:22.262Z,97344.02
2019-02-19T05:40:53.868Z,97347.54
2019-02-19T05:43:24.278Z,97346.60
2019-02-19T05:45:54.705Z,97352.44
2019-02-19T05:48:25.084Z,97351.96
2019-02-19T05:50:55.490Z,97355.02
2019-02-19T05:53:25.874Z,97366.61
2019-02-19T05:55:56.156Z,97364.70
2019-02-19T05:58:28.121Z,97362.02
2019-02-19T06:00:58.482Z,97366.03
2019-02-19T06:03:28.798Z,97373.14
2019-02-19T06:05:59.354Z,97373.91
2019-02-19T06:08:30.437Z,97379.17
2019-02-19T06:11:00.768Z,97378.20
2019-02-19T06:13:31.389Z,97376.02
2019-02-19T06:16:03.826Z,97379.84
2019-02-19T06:18:34.207Z,97378.13
2019-02-19T06:21:04.658Z,97385.61
2019-02-19T06:23:35.046Z,97390.87
2019-02-19T06:26:05.431Z,97384.94
2019-02-19T06:28:37.524Z,97403.70
2019-02-19T06:31:07.903Z,97394.22
2019-02-19T06:33:38.359Z,97401.80
2019-02-19T06:36:10.125Z,97406.12
2019-02-19T06:38:40.915Z,97404.38
2019-02-19T06:41:11.212Z,97410.34
2019-02-19T06:43:41.621Z,97413.02
2019-02-19T06:46:11.948Z,97422.67
2019-02-19T06:49:16.712Z,97416.84
2019-02-19T06:51:57.660Z,97418.95
2019-02-19T06:54:31.790Z,97420.70
2019-02-19T06:57:09.241Z,97419.72
2019-02-19T06:59:40.690Z,97423.75
2019-02-19T07:02:29.976Z,97420.89
2019-02-19T07:05:19.054Z,97427.50
2019-02-19T07:07:52.339Z,97427.97
2019-02-19T07:10:22.774Z,97433.73
2019-02-19T07:12:55.206Z,97428.23
2019-02-19T07:15:25.602Z,97427.47
2019-02-19T07:17:56.031Z,97427.84
2019-02-19T07:20:26.451Z,97421.84
2019-02-19T07:22:57.818Z,97427.09
2019-02-19T07:25:28.134Z,97426.46
2019-02-19T07:27:58.786Z,97417.08
2019-02-19T07:30:29.179Z,97416.20
2019-02-19T07:32:59.552Z,97418.41
2019-02-19T07:35:32.539Z,97414.29
2019-02-19T07:38:02.950Z,97409.80
2019-02-19T07:40:33.423Z,97415.42
2019-02-19T07:43:03.830Z,97415.53
2019-02-19T07:45:34.235Z,97416.00
2019-02-19T07:48:02.959Z,97411.97
2019-02-19T07:50:33.282Z,97412.48
2019-02-19T07:53:04.055Z,97414.48
2019-02-19T07:55:34.329Z,97415.36
2019-02-19T07:58:04.668Z,97415.36
2019-02-19T08:00:34.982Z,97415.42
2019-02-19T08:03:05.970Z,97412.48
2019-02-19T08:05:36.314Z,97418.05
2019-02-19T08:08:06.685Z,97419.75
2019-02-19T08:10:37.095Z,97420.33
2019-02-19T08:13:07.459Z,97414.09
2019-02-19T08:15:38.900Z,97411.41
2019-02-19T08:18:09.337Z,97411.91
2019-02-19T08:20:39.677Z,97405.97
2019-02-19T08:23:10.121Z,97410.36
2019-02-19T08:25:40.430Z,97407.58
2019-02-19T08:28:13.075Z,97410.36
2019-02-19T08:30:43.468Z,97413.92
2019-02-19T08:33:13.892Z,97406.81
2019-02-19T08:35:44.298Z,97414.95
2019-02-19T08:38:14.680Z,97413.15
2019-02-19T08:40:45.060Z,97412.58
2019-02-19T08:43:15.440Z,97411.60
2019-02-19T08:45:45.856Z,97413.45
2019-02-19T08:48:16.291Z,97413.05
2019-02-19T08:50:46.640Z,97409.02
2019-02-19T08:53:17.061Z,97416.50
2019-02-19T08:55:47.635Z,97412.10
2019-02-19T08:58:18.080Z,97416.13
2019-02-19T09:00:48.421Z,97422.91
2019-02-19T09:03:18.880Z,97421.20
2019-02-19T09:05:49.380Z,97421.77
2019-02-19T09:08:19.715Z,97423.88
2019-02-19T09:10:50.055Z,97428.20
2019-02-19T09:13:20.438Z,97427.23
2019-02-19T09:15:50.832Z,97428.56
2019-02-19T09:18:21.088Z,97426.28
2019-02-19T09:20:51.878Z,97422.63
2019-02-19T09:23:22.155Z,97422.63
2019-02-19T09:25:52.535Z,97423.10
2019-02-19T09:28:22.940Z,97423.10
2019-02-19T09:30:53.664Z,97419.95
2019-02-19T09:33:24.085Z,97416.03
2019-02-19T09:35:54.457Z,97421.09
2019-02-19T09:38:27.942Z,97416.97
2019-02-19T09:40:58.581Z,97416.13
2019-02-19T09:43:35.326Z,97414.48
2019-02-19T09:46:01.018Z,97415.83
2019-02-19T09:48:32.079Z,97422.91
2019-02-19T09:51:02.552Z,97413.25
2019-02-19T09:53:32.910Z,97418.98
2019-02-19T09:56:03.304Z,97421.30
2019-02-19T09:58:34.644Z,97413.72
2019-02-19T10:01:05.060Z,97421.66
2019-02-19T10:03:35.478Z,97415.25
2019-02-19T10:06:05.825Z,97417.17
2019-02-19T10:08:38.203Z,97416.87
2019-02-19T10:11:08.374Z,97420.89
2019-02-19T10:13:39.067Z,97413.82
2019-02-19T10:16:09.431Z,97410.27
2019-02-19T10:18:39.629Z,97415.93
2019-02-19T10:21:10.832Z,97403.92
2019-02-19T10:23:41.290Z,97409.86
2019-02-19T10:26:11.690Z,97405.38
2019-02-19T10:28:43.581Z,97409.03
2019-02-19T10:31:15.159Z,97399.23
2019-02-19T10:33:45.464Z,97410.84
2019-02-19T10:36:15.926Z,97403.66
2019-02-19T10:38:46.298Z,97402.32
2019-02-19T10:41:16.633Z,97401.92
2019-02-19T10:43:46.931Z,97398.37
2019-02-19T10:46:17.275Z,97399.64
2019-02-19T10:48:47.617Z,97401.34
2019-02-19T10:51:18.174Z,97399.14
2019-02-19T10:53:48.495Z,97398.30
2019-02-19T10:56:18.848Z,97394.54
2019-02-19T10:58:49.251Z,97388.04
2019-02-19T11:01:19.601Z,97393.00
2019-02-19T11:03:50.055Z,97386.30
2019-02-19T11:06:20.504Z,97384.39
2019-02-19T11:08:51.849Z,97386.23
2019-02-19T11:11:22.203Z,97384.12
2019-02-19T11:13:52.513Z,97379.13
2019-02-19T11:16:23.194Z,97376.84
2019-02-19T11:18:53.560Z,97381.23
2019-02-19T11:21:24.232Z,97375.00
2019-02-19T11:23:55.726Z,97371.95
2019-02-19T11:26:26.097Z,97373.76
2019-02-19T11:28:57.701Z,97376.91
2019-02-19T11:31:28.171Z,97372.41
2019-02-19T11:33:58.573Z,97366.48
2019-02-19T11:36:29.063Z,97356.63
2019-02-19T11:38:59.465Z,97364.20
2019-02-19T11:41:29.920Z,97365.14
2019-02-19T11:44:00.237Z,97359.41
2019-02-19T11:46:30.638Z,97362.09
2019-02-19T11:49:01.779Z,97363.33
2019-02-19T11:51:32.221Z,97358.33
2019-02-19T11:54:02.797Z,97352.03
2019-02-19T11:56:33.234Z,97359.09
2019-02-19T11:59:03.791Z,97353.84
2019-02-19T12:01:34.277Z,97357.56
2019-02-19T12:04:04.589Z,97357.86
2019-02-19T12:06:35.350Z,97352.12
2019-02-19T12:09:14.851Z,97353.07
2019-02-19T12:11:45.287Z,97348.11
2019-02-19T12:14:15.627Z,97349.45
2019-02-19T12:16:47.506Z,97346.77
2019-02-19T12:19:17.903Z,97345.49
2019-02-19T12:21:48.255Z,97344.16
2019-02-19T12:24:18.537Z,97340.70
2019-02-19T12:26:49.433Z,97338.42
2019-02-19T12:29:19.867Z,97330.73
2019-02-19T12:31:50.193Z,97325.37
2019-02-19T12:34:20.579Z,97323.20
2019-02-19T12:36:50.911Z,97321.92
2019-02-19T12:39:21.390Z,97326.72
2019-02-19T12:41:52.772Z,97322.33
2019-02-19T12:44:23.128Z,97325.88
2019-02-19T12:46:56.850Z,97319.95
2019-02-19T12:49:27.251Z,97324.61
2019-02-19T12:51:57.665Z,97317.54
2019-02-19T12:54:28.058Z,97315.16
2019-02-19T12:56:59.724Z,97316.49
2019-02-19T12:59:30.745Z,97314.28
2019-02-19T13:02:01.134Z,97317.33
2019-02-19T13:04:31.504Z,97308.45
2019-02-19T13:07:02.421Z,97308.92
2019-02-19T13:09:32.857Z,97313.41
2019-02-19T13:12:03.201Z,97313.41
2019-02-19T13:14:33.553Z,97319.25
2019-02-19T13:17:04.668Z,97314.39
2019-02-19T13:19:35.061Z,97315.73
2019-02-19T13:22:05.483Z,97308.16
2019-02-19T13:24:35.866Z,97305.94
2019-02-19T13:27:06.445Z,97303.26
2019-02-19T13:29:36.748Z,97311.30
2019-02-19T13:32:07.096Z,97309.97
2019-02-19T13:34:37.378Z,97306.41
2019-02-19T13:37:09.910Z,97311.70
2019-02-19T13:39:40.969Z,97303.16
2019-02-19T13:42:11.325Z,97304.13
2019-02-19T13:44:44.074Z,97312.17
2019-02-19T13:47:14.441Z,97305.47
2019-02-19T13:49:46.040Z,97304.23
2019-02-19T13:52:35.351Z,97298.88
2019-02-19T13:55:11.036Z,97304.23
2019-02-19T13:57:41.767Z,97300.86
2019-02-19T14:00:17.393Z,97304.41
2019-02-19T14:02:47.707Z,97303.53
2019-02-19T14:05:18.077Z,97308.43
2019-02-19T14:07:50.219Z,97311.98
2019-02-19T14:10:21.457Z,97308.83
2019-02-19T14:12:51.705Z,97311.01
2019-02-19T14:15:42.712Z,97313.69
2019-02-19T14:18:14.943Z,97312.45
2019-02-19T14:21:11.517Z,97305.95
2019-02-19T14:24:06.090Z,97311.69
2019-02-19T14:26:54.285Z,97310.55
2019-02-19T14:29:42.148Z,97311.49
2019-02-19T14:32:23.231Z,97315.22
2019-02-19T14:35:12.577Z,97312.64
2019-02-19T14:38:03.249Z,97314.84
2019-02-19T14:41:07.531Z,97309.59
2019-02-19T14:44:05.355Z,97308.89
2019-02-19T14:46:43.374Z,97314.75
2019-02-19T14:49:36.901Z,97307.66
2019-02-19T14:52:18.839Z,97313.48
2019-02-19T14:55:09.848Z,97308.63
2019-02-19T14:58:14.425Z,97311.77
2019-02-19T15:01:15.342Z,97317.71
2019-02-19T15:04:19.759Z,97317.31
2019-02-19T15:07:27.164Z,97317.41
2019-02-19T15:10:15.106Z,97320.09
2019-02-19T15:13:13.150Z,97317.62
2019-02-19T15:15:58.873Z,97314.44
2019-02-19T15:18:51.178Z,97315.41
2019-02-19T15:21:43.261Z,97318.09
2019-02-19T15:24:36.800Z,97317.78
2019-02-19T15:27:29.242Z,97317.31
2019-02-19T15:30:19.531Z,97315.11
2019-02-19T15:33:14.882Z,97317.42
2019-02-19T15:36:11.942Z,97319.70
2019-02-19T15:39:05.444Z,97317.48
2019-02-19T15:41:54.960Z,97310.42
2019-02-19T15:44:43.030Z,97317.12
2019-02-19T15:47:24.153Z,97310.89
2019-02-19T15:50:22.921Z,97316.34
2019-02-19T15:53:18.237Z,97321.81
2019-02-19T15:56:07.731Z,97321.52
2019-02-19T15:58:56.929Z,97320.17
2019-02-19T16:01:49.176Z,97315.28
2019-02-19T16:04:38.495Z,97320.64
2019-02-19T16:07:27.837Z,97321.61
2019-02-19T16:10:17.108Z,97323.89
2019-02-19T16:12:59.204Z,97326.20
2019-02-19T16:15:50.676Z,97331.16
2019-02-19T16:18:42.851Z,97328.31
2019-02-19T16:21:24.520Z,97325.33
2019-02-19T16:24:11.749Z,97332.03
2019-02-19T16:27:04.404Z,97335.08
2019-02-19T16:29:52.150Z,97343.63
2019-02-19T16:32:32.267Z,97342.45
2019-02-19T16:35:09.329Z,97346.47
2019-02-19T16:37:58.747Z,97350.89
2019-02-19T16:43:43.633Z,97366.00
2019-02-19T16:46:31.706Z,97372.23
2019-02-19T16:57:55.571Z,97384.95
2019-02-19T17:00:50.963Z,97389.55
2019-02-19T17:03:40.871Z,97394.03
2019-02-19T17:06:24.352Z,97400.16
2019-02-19T17:09:12.556Z,97405.83
2019-02-19T17:11:52.365Z,97407.73
2019-02-19T17:14:40.648Z,97414.34
2019-02-19T17:17:41.733Z,97421.60
2019-02-19T17:20:28.754Z,97420.73
2019-02-19T17:23:10.015Z,97428.40
2019-02-19T17:26:00.583Z,97433.76
2019-02-19T17:28:47.916Z,97440.05
2019-02-19T17:31:46.802Z,97443.61
2019-02-19T17:34:24.450Z,97441.02
2019-02-19T17:37:22.564Z,97449.53
2019-02-19T17:40:06.847Z,97449.06
2019-02-19T17:42:56.403Z,97458.50
2019-02-19T17:45:41.505Z,97458.50
2019-02-19T17:48:33.810Z,97456.23
2019-02-19T17:51:36.315Z,97453.14
2019-02-19T17:54:40.961Z,97457.67
2019-02-19T17:57:35.212Z,97462.52
2019-02-19T18:00:31.260Z,97467.52
2019-02-19T18:03:31.798Z,97467.42
2019-02-19T18:06:23.726Z,97466.55
2019-02-19T18:09:15.705Z,97472.77
2019-02-19T18:12:11.973Z,97474.52
2019-02-19T18:15:07.378Z,97479.94
2019-02-19T18:17:55.186Z,97486.27
2019-02-19T18:20:25.975Z,97488.08
2019-02-19T18:23:18.980Z,97488.48
2019-02-19T18:25:50.913Z,97496.89
2019-02-19T18:28:22.569Z,97493.84
2019-02-19T18:30:57.001Z,97496.52
2019-02-19T18:33:29.017Z,97496.89
2019-02-19T18:36:00.818Z,97494.68
2019-02-19T18:38:31.748Z,97491.16
2019-02-19T18:41:03.361Z,97493.44
2019-02-19T18:43:35.812Z,97497.77
2019-02-19T18:46:06.371Z,97502.72
2019-02-19T18:48:36.786Z,97501.78
2019-02-19T18:51:07.631Z,97507.52
2019-02-19T18:53:39.506Z,97507.61
2019-02-19T18:56:10.600Z,97508.08
2019-02-19T18:58:41.150Z,97511.16
2019-02-19T19:01:11.640Z,97516.05
2019-02-19T19:03:42.283Z,97512.03
2019-02-19T19:06:12.984Z,97515.19
2019-02-19T19:08:43.545Z,97517.40
2019-02-19T19:11:13.994Z,97522.75
2019-02-19T19:13:44.376Z,97517.40
2019-02-19T19:16:14.827Z,97513.75
2019-02-19T19:18:45.120Z,97511.06
2019-02-19T19:21:15.490Z,97514.22
2019-02-19T19:23:45.948Z,97516.42
2019-02-19T19:26:18.620Z,97523.13
2019-02-19T19:28:49.024Z,97522.25
2019-02-19T19:31:19.443Z,97525.34
2019-02-19T19:33:49.937Z,97528.02
2019-02-19T19:36:20.282Z,97526.21
2019-02-19T19:38:51.609Z,97524.56
2019-02-19T19:41:22.080Z,97524.47
2019-02-19T19:43:54.556Z,97528.39
2019-02-19T19:46:27.790Z,97528.39
2019-02-19T19:48:58.125Z,97528.33
2019-02-19T19:51:28.564Z,97535.03
2019-02-19T19:53:58.949Z,97542.66
2019-02-19T19:56:29.424Z,97542.56
2019-02-19T19:58:59.901Z,97540.39
2019-02-19T20:01:30.383Z,97537.70
2019-02-19T20:04:00.821Z,97539.05
2019-02-19T20:06:33.078Z,97539.05
2019-02-19T20:09:06.615Z,97535.03
2019-02-19T20:11:39.628Z,97539.89
2019-02-19T20:14:10.158Z,97545.75
2019-02-19T20:16:40.670Z,97550.45
2019-02-19T20:19:14.576Z,97558.95
2019-02-19T20:21:45.107Z,97550.83
2019-02-19T20:24:15.613Z,97557.47
2019-02-19T20:26:46.438Z,97558.40
2019-02-19T20:29:17.044Z,97559.73
2019-02-19T20:31:56.686Z,97555.63
2019-02-19T20:34:28.429Z,97562.82
2019-02-19T20:37:00.269Z,97562.05
2019-02-19T20:39:30.732Z,97564.16
2019-02-19T20:42:01.589Z,97564.63
2019-02-19T20:44:33.982Z,97568.19
2019-02-19T20:47:04.824Z,97558.70
2019-02-19T20:49:35.937Z,97556.03
2019-02-19T20:52:06.443Z,97554.69
2019-02-19T20:54:36.971Z,97553.81
2019-02-19T20:57:09.966Z,97550.66
2019-02-19T20:59:42.281Z,97546.55
2019-02-19T21:02:18.768Z,97535.92
2019-02-19T21:04:55.111Z,97534.89
2019-02-19T21:07:25.858Z,97538.35
2019-02-19T21:09:57.182Z,97528.31
2019-02-19T21:12:29.574Z,97534.91
2019-02-19T21:15:01.561Z,97537.50
2019-02-19T21:17:32.035Z,97537.22
2019-02-19T21:20:03.012Z,97536.05
2019-02-19T21:22:35.109Z,97536.35
2019-02-19T21:25:05.669Z,97537.59
2019-02-19T21:27:36.270Z,97537.59
2019-02-19T21:30:07.710Z,97535.53
2019-02-19T21:32:38.891Z,97530.17
2019-02-19T21:35:10.350Z,97533.53
2019-02-19T21:37:41.958Z,97532.75
2019-02-19T21:40:12.454Z,97539.15
2019-02-19T21:42:43.825Z,97539.55
2019-02-19T21:45:14.571Z,97538.58
2019-02-19T21:47:47.343Z,97538.48
2019-02-19T21:50:17.829Z,97521.47
2019-02-19T21:52:50.438Z,97520.03
2019-02-19T21:55:20.836Z,97527.20
2019-02-19T21:57:51.122Z,97536.11
2019-02-19T22:00:21.739Z,97536.89
2019-02-19T22:02:53.206Z,97538.54
2019-02-19T22:05:23.618Z,97531.43
2019-02-19T22:07:54.383Z,97532.87
2019-02-19T22:10:24.749Z,97532.97
2019-02-19T22:12:55.086Z,97532.66
2019-02-19T22:15:25.477Z,97526.36
2019-02-19T22:17:55.803Z,97532.19
2019-02-19T22:20:57.250Z,97531.41
2019-02-19T22:23:28.076Z,97534.09
2019-02-19T22:25:58.450Z,97536.21
2019-02-19T22:28:29.012Z,97531.63
2019-02-19T22:30:59.449Z,97536.11
2019-02-19T22:33:30.392Z,97532.28
2019-02-19T22:36:00.896Z,97538.21
2019-02-19T22:38:31.258Z,97537.81
2019-02-19T22:41:01.645Z,97530.64
2019-02-19T22:43:32.113Z,97536.00
2019-02-19T22:46:02.453Z,97530.64
2019-02-19T22:48:32.840Z,97526.15
2019-02-19T22:51:03.246Z,97530.54
2019-02-19T22:53:55.776Z,97527.86
2019-02-19T22:56:29.098Z,97541.27
2019-02-19T22:58:59.467Z,97536.56
2019-02-19T23:01:38.908Z,97545.55
2019-02-19T23:04:09.457Z,97540.12
2019-02-19T23:06:39.873Z,97544.20
2019-02-19T23:09:11.854Z,97550.06
2019-02-19T23:11:42.231Z,97551.97
2019-02-19T23:14:12.594Z,97555.12
2019-02-19T23:16:42.936Z,97558.27
2019-02-19T23:19:13.375Z,97561.35
2019-02-19T23:21:44.708Z,97560.48
2019-02-19T23:24:15.145Z,97563.16
2019-02-19T23:26:45.508Z,97550.62
2019-02-19T23:29:15.934Z,97555.48
2019-02-19T23:31:46.367Z,97555.02
2019-02-19T23:34:16.705Z,97558.57
2019-02-19T23:36:53.565Z,97557.70
2019-02-19T23:39:23.855Z,97560.78
2019-02-19T23:41:54.291Z,97559.04
2019-02-19T23:44:24.691Z,97558.57
2019-02-19T23:46:54.997Z,97559.04
2019-02-19T23:49:25.374Z,97556.36
2019-02-19T23:51:58.684Z,97560.38
2019-02-19T23:54:31.229Z,97559.14
2019-02-19T23:57:01.553Z,97557.33
2019-02-19T23:59:32.007Z,97556.45
